Hot Springs, Virginia
Current Conditions -  °F | °C
As of 4:35 AM on Saturday 25 Oct 2014 (Local Time) from KHSP Reporting Station
Clear Clear  
Wind Chill: 36°   Ceiling: Unl
Heat Index: 42°   Visibility: 10mi
Dew Point: 34°   Wind: 12mph
Humidity: 72%   Direction: 310°NW
Pressure: 30"   Gusts: NA
Location:  37.97°N, 79.77°W
Report Text: KHSP 250835Z AUTO 31010KT 10SM CLR 06/01 A3000 RMK AO2 T00580012
Loading
Personal Weather Stations






























Interactive Weather Map New forecast layout! Learn more

10-Day Weather Forecast

Advertisements
Track Severe Weather on mobile